sensor_id;sensor_type;location;lat;lon;timestamp;pressure;altitude;pressure_sealevel;temperature;humidity
43711;BME280;29309;42.682;23.372;2023-01-29T00:01:06;95279.28;;;0.43;84.91
43711;BME280;29309;42.682;23.372;2023-01-29T00:03:33;95282.19;;;0.45;85.33
43711;BME280;29309;42.682;23.372;2023-01-29T00:05:59;95284.19;;;0.44;85.02
43711;BME280;29309;42.682;23.372;2023-01-29T00:08:24;95295.84;;;0.45;84.99
43711;BME280;29309;42.682;23.372;2023-01-29T00:10:50;95292.38;;;0.44;84.99
43711;BME280;29309;42.682;23.372;2023-01-29T00:13:16;95298.75;;;0.47;84.98
43711;BME280;29309;42.682;23.372;2023-01-29T00:15:42;95299.47;;;0.47;85.05
43711;BME280;29309;42.682;23.372;2023-01-29T00:18:07;95301.50;;;0.47;85.31
43711;BME280;29309;42.682;23.372;2023-01-29T00:20:33;95302.75;;;0.46;85.36
43711;BME280;29309;42.682;23.372;2023-01-29T00:22:58;95297.09;;;0.44;85.55
43711;BME280;29309;42.682;23.372;2023-01-29T00:25:24;95321.69;;;0.44;85.41
43711;BME280;29309;42.682;23.372;2023-01-29T00:27:50;95305.28;;;0.44;85.35
43711;BME280;29309;42.682;23.372;2023-01-29T00:30:16;95304.41;;;0.41;85.29
43711;BME280;29309;42.682;23.372;2023-01-29T00:32:44;95314.94;;;0.45;85.47
43711;BME280;29309;42.682;23.372;2023-01-29T00:35:10;95313.47;;;0.52;85.75
43711;BME280;29309;42.682;23.372;2023-01-29T00:37:35;95308.00;;;0.52;85.61
43711;BME280;29309;42.682;23.372;2023-01-29T00:40:01;95314.78;;;0.51;85.48
43711;BME280;29309;42.682;23.372;2023-01-29T00:42:27;95314.56;;;0.48;85.78
43711;BME280;29309;42.682;23.372;2023-01-29T00:45:11;95311.84;;;0.48;85.91
43711;BME280;29309;42.682;23.372;2023-01-29T00:47:37;95313.47;;;0.52;85.94
43711;BME280;29309;42.682;23.372;2023-01-29T00:50:12;95304.00;;;0.53;85.58
43711;BME280;29309;42.682;23.372;2023-01-29T00:52:38;95309.31;;;0.51;85.58
43711;BME280;29309;42.682;23.372;2023-01-29T00:55:07;95307.13;;;0.49;85.45
43711;BME280;29309;42.682;23.372;2023-01-29T00:57:34;95304.91;;;0.47;85.86
43711;BME280;29309;42.682;23.372;2023-01-29T01:00:00;95310.94;;;0.46;85.59
43711;BME280;29309;42.682;23.372;2023-01-29T01:02:26;95307.50;;;0.45;86.01
43711;BME280;29309;42.682;23.372;2023-01-29T01:05:12;95304.75;;;0.45;86.34
43711;BME280;29309;42.682;23.372;2023-01-29T01:07:45;95310.22;;;0.45;86.49
43711;BME280;29309;42.682;23.372;2023-01-29T01:10:27;95309.47;;;0.45;86.74
43711;BME280;29309;42.682;23.372;2023-01-29T01:13:04;95306.59;;;0.43;86.72
43711;BME280;29309;42.682;23.372;2023-01-29T01:15:35;95304.75;;;0.45;87.11
43711;BME280;29309;42.682;23.372;2023-01-29T01:18:01;95296.03;;;0.47;86.77
43711;BME280;29309;42.682;23.372;2023-01-29T01:20:29;95293.63;;;0.43;86.74
43711;BME280;29309;42.682;23.372;2023-01-29T01:22:55;95295.84;;;0.45;86.96
43711;BME280;29309;42.682;23.372;2023-01-29T01:25:22;95290.56;;;0.39;86.64
43711;BME280;29309;42.682;23.372;2023-01-29T01:27:54;95293.09;;;0.37;86.80
43711;BME280;29309;42.682;23.372;2023-01-29T01:30:20;95299.31;;;0.38;86.78
43711;BME280;29309;42.682;23.372;2023-01-29T01:32:46;95300.94;;;0.33;86.73
43711;BME280;29309;42.682;23.372;2023-01-29T01:35:11;95297.31;;;0.23;86.85
43711;BME280;29309;42.682;23.372;2023-01-29T01:37:39;95300.94;;;0.18;87.03
43711;BME280;29309;42.682;23.372;2023-01-29T01:40:07;95304.41;;;0.19;87.47
43711;BME280;29309;42.682;23.372;2023-01-29T01:42:39;95302.25;;;0.17;87.73
43711;BME280;29309;42.682;23.372;2023-01-29T01:45:13;95300.41;;;0.20;87.80
43711;BME280;29309;42.682;23.372;2023-01-29T01:47:47;95302.41;;;0.19;87.88
43711;BME280;29309;42.682;23.372;2023-01-29T01:50:18;95306.59;;;0.20;87.70
43711;BME280;29309;42.682;23.372;2023-01-29T01:52:49;95317.69;;;0.22;88.15
43711;BME280;29309;42.682;23.372;2023-01-29T01:55:18;95311.88;;;0.18;87.78
43711;BME280;29309;42.682;23.372;2023-01-29T01:57:47;95310.44;;;0.17;88.29
43711;BME280;29309;42.682;23.372;2023-01-29T02:00:16;95317.31;;;0.18;88.13
43711;BME280;29309;42.682;23.372;2023-01-29T02:02:44;95320.97;;;0.21;88.30
43711;BME280;29309;42.682;23.372;2023-01-29T02:05:32;95322.97;;;0.20;88.20
43711;BME280;29309;42.682;23.372;2023-01-29T02:08:24;95324.09;;;0.17;88.62
43711;BME280;29309;42.682;23.372;2023-01-29T02:11:10;95319.16;;;0.23;88.61
43711;BME280;29309;42.682;23.372;2023-01-29T02:13:35;95315.16;;;0.24;88.68
43711;BME280;29309;42.682;23.372;2023-01-29T02:16:01;95316.06;;;0.27;88.88
43711;BME280;29309;42.682;23.372;2023-01-29T02:18:26;95310.44;;;0.32;88.83
43711;BME280;29309;42.682;23.372;2023-01-29T02:26:28;95321.72;;;0.29;88.99
43711;BME280;29309;42.682;23.372;2023-01-29T02:34:32;95338.44;;;0.40;89.05
43711;BME280;29309;42.682;23.372;2023-01-29T02:37:24;95329.88;;;0.36;89.08
43711;BME280;29309;42.682;23.372;2023-01-29T02:42:28;95340.25;;;0.38;89.14
43711;BME280;29309;42.682;23.372;2023-01-29T02:45:21;95334.44;;;0.41;88.93
43711;BME280;29309;42.682;23.372;2023-01-29T02:47:58;95347.91;;;0.39;88.72
43711;BME280;29309;42.682;23.372;2023-01-29T02:53:01;95345.91;;;0.32;88.91
43711;BME280;29309;42.682;23.372;2023-01-29T02:55:38;95342.47;;;0.32;89.17
43711;BME280;29309;42.682;23.372;2023-01-29T02:58:44;95335.53;;;0.31;89.24
43711;BME280;29309;42.682;23.372;2023-01-29T03:01:18;95342.81;;;0.36;89.67
43711;BME280;29309;42.682;23.372;2023-01-29T03:03:49;95341.00;;;0.31;89.56
43711;BME280;29309;42.682;23.372;2023-01-29T03:09:09;95338.44;;;0.33;90.15
43711;BME280;29309;42.682;23.372;2023-01-29T03:11:38;95346.44;;;0.38;89.79
43711;BME280;29309;42.682;23.372;2023-01-29T03:14:08;95340.78;;;0.36;89.89
43711;BME280;29309;42.682;23.372;2023-01-29T03:16:55;95340.63;;;0.34;89.87
43711;BME280;29309;42.682;23.372;2023-01-29T03:19:33;95339.91;;;0.34;90.06
43711;BME280;29309;42.682;23.372;2023-01-29T03:22:03;95343.00;;;0.30;89.94
43711;BME280;29309;42.682;23.372;2023-01-29T03:24:38;95343.56;;;0.29;90.01
43711;BME280;29309;42.682;23.372;2023-01-29T03:27:26;95345.34;;;0.26;90.03
43711;BME280;29309;42.682;23.372;2023-01-29T03:30:13;95345.34;;;0.26;90.32
43711;BME280;29309;42.682;23.372;2023-01-29T03:33:00;95350.81;;;0.26;90.27
43711;BME280;29309;42.682;23.372;2023-01-29T03:35:30;95344.63;;;0.26;90.26
43711;BME280;29309;42.682;23.372;2023-01-29T03:38:07;95349.19;;;0.23;89.88
43711;BME280;29309;42.682;23.372;2023-01-29T03:40:59;95353.19;;;0.22;90.14
43711;BME280;29309;42.682;23.372;2023-01-29T03:43:30;95347.34;;;0.26;90.34
43711;BME280;29309;42.682;23.372;2023-01-29T03:46:09;95343.91;;;0.25;90.21
43711;BME280;29309;42.682;23.372;2023-01-29T03:49:04;95345.34;;;0.26;90.59
43711;BME280;29309;42.682;23.372;2023-01-29T03:51:37;95347.91;;;0.24;90.32
43711;BME280;29309;42.682;23.372;2023-01-29T03:54:22;95350.81;;;0.19;90.71
43711;BME280;29309;42.682;23.372;2023-01-29T03:56:58;95356.09;;;0.24;90.93
43711;BME280;29309;42.682;23.372;2023-01-29T04:02:10;95352.28;;;0.20;90.89
43711;BME280;29309;42.682;23.372;2023-01-29T04:04:40;95354.63;;;0.16;90.82
43711;BME280;29309;42.682;23.372;2023-01-29T04:07:15;95347.19;;;0.16;91.22
43711;BME280;29309;42.682;23.372;2023-01-29T04:09:50;95349.38;;;0.18;91.50
43711;BME280;29309;42.682;23.372;2023-01-29T04:12:25;95345.72;;;0.15;91.81
43711;BME280;29309;42.682;23.372;2023-01-29T04:14:53;95351.91;;;0.16;91.74
43711;BME280;29309;42.682;23.372;2023-01-29T04:17:27;95359.56;;;0.17;91.81
43711;BME280;29309;42.682;23.372;2023-01-29T04:19:58;95359.56;;;0.17;91.87
43711;BME280;29309;42.682;23.372;2023-01-29T04:22:32;95355.19;;;0.22;91.90
43711;BME280;29309;42.682;23.372;2023-01-29T04:24:59;95361.00;;;0.18;91.90
43711;BME280;29309;42.682;23.372;2023-01-29T04:27:44;95357.75;;;0.20;91.81
43711;BME280;29309;42.682;23.372;2023-01-29T04:33:25;95364.09;;;0.15;91.71
43711;BME280;29309;42.682;23.372;2023-01-29T04:38:39;95361.19;;;0.13;91.64
43711;BME280;29309;42.682;23.372;2023-01-29T04:41:35;95356.63;;;0.15;91.38
43711;BME280;29309;42.682;23.372;2023-01-29T04:44:38;95360.28;;;0.18;91.23
43711;BME280;29309;42.682;23.372;2023-01-29T04:47:05;95366.47;;;0.18;90.97
43711;BME280;29309;42.682;23.372;2023-01-29T04:54:57;95373.22;;;0.10;90.66
43711;BME280;29309;42.682;23.372;2023-01-29T05:00:16;95371.03;;;0.16;90.72
43711;BME280;29309;42.682;23.372;2023-01-29T05:02:44;95373.00;;;0.15;90.50
43711;BME280;29309;42.682;23.372;2023-01-29T05:05:12;95369.19;;;0.18;90.78
43711;BME280;29309;42.682;23.372;2023-01-29T05:07:40;95379.94;;;0.16;90.70
43711;BME280;29309;42.682;23.372;2023-01-29T05:10:08;95367.94;;;0.19;90.60
43711;BME280;29309;42.682;23.372;2023-01-29T05:12:36;95376.84;;;0.20;90.34
43711;BME280;29309;42.682;23.372;2023-01-29T05:15:04;95385.03;;;0.20;90.42
43711;BME280;29309;42.682;23.372;2023-01-29T05:17:32;95393.06;;;0.18;90.69
43711;BME280;29309;42.682;23.372;2023-01-29T05:19:58;95382.47;;;0.22;90.88
43711;BME280;29309;42.682;23.372;2023-01-29T05:22:24;95386.66;;;0.23;90.08
43711;BME280;29309;42.682;23.372;2023-01-29T05:24:50;95384.66;;;0.23;90.31
43711;BME280;29309;42.682;23.372;2023-01-29T05:27:28;95383.56;;;0.26;90.52
43711;BME280;29309;42.682;23.372;2023-01-29T05:30:14;95387.59;;;0.25;90.30
43711;BME280;29309;42.682;23.372;2023-01-29T05:32:39;95398.16;;;0.29;89.97
43711;BME280;29309;42.682;23.372;2023-01-29T05:35:05;95399.97;;;0.26;89.65
43711;BME280;29309;42.682;23.372;2023-01-29T05:37:31;95395.22;;;0.27;89.42
43711;BME280;29309;42.682;23.372;2023-01-29T05:39:56;95397.22;;;0.26;89.84
43711;BME280;29309;42.682;23.372;2023-01-29T05:42:21;95395.78;;;0.25;89.75
43711;BME280;29309;42.682;23.372;2023-01-29T05:44:47;95397.97;;;0.27;89.98
43711;BME280;29309;42.682;23.372;2023-01-29T05:47:12;95394.88;;;0.30;89.83
43711;BME280;29309;42.682;23.372;2023-01-29T05:49:38;95395.22;;;0.27;89.63
43711;BME280;29309;42.682;23.372;2023-01-29T05:52:03;95397.06;;;0.24;89.62
43711;BME280;29309;42.682;23.372;2023-01-29T05:54:29;95405.03;;;0.22;90.07
43711;BME280;29309;42.682;23.372;2023-01-29T05:56:55;95406.88;;;0.20;90.18
43711;BME280;29309;42.682;23.372;2023-01-29T05:59:20;95404.88;;;0.20;90.56
43711;BME280;29309;42.682;23.372;2023-01-29T06:01:45;95402.88;;;0.21;90.36
43711;BME280;29309;42.682;23.372;2023-01-29T06:04:11;95406.13;;;0.19;90.65
43711;BME280;29309;42.682;23.372;2023-01-29T06:06:36;95416.16;;;0.24;91.14
43711;BME280;29309;42.682;23.372;2023-01-29T06:09:02;95422.16;;;0.23;90.98
43711;BME280;29309;42.682;23.372;2023-01-29T06:11:27;95422.34;;;0.25;91.11
43711;BME280;29309;42.682;23.372;2023-01-29T06:13:53;95427.25;;;0.26;91.16
43711;BME280;29309;42.682;23.372;2023-01-29T06:16:18;95425.09;;;0.25;91.19
43711;BME280;29309;42.682;23.372;2023-01-29T06:18:44;95424.00;;;0.28;90.98
43711;BME280;29309;42.682;23.372;2023-01-29T06:21:11;95428.72;;;0.27;91.14
43711;BME280;29309;42.682;23.372;2023-01-29T06:23:37;95434.34;;;0.29;91.53
43711;BME280;29309;42.682;23.372;2023-01-29T06:26:05;95433.28;;;0.32;91.59
43711;BME280;29309;42.682;23.372;2023-01-29T06:28:31;95442.19;;;0.33;91.44
43711;BME280;29309;42.682;23.372;2023-01-29T06:30:58;95436.19;;;0.34;91.66
43711;BME280;29309;42.682;23.372;2023-01-29T06:33:24;95448.94;;;0.39;91.26
43711;BME280;29309;42.682;23.372;2023-01-29T06:35:54;95442.19;;;0.40;91.47
43711;BME280;29309;42.682;23.372;2023-01-29T06:38:20;95449.13;;;0.41;91.46
43711;BME280;29309;42.682;23.372;2023-01-29T06:40:45;95452.03;;;0.43;91.19
43711;BME280;29309;42.682;23.372;2023-01-29T06:43:10;95453.31;;;0.42;91.34
43711;BME280;29309;42.682;23.372;2023-01-29T06:45:36;95462.25;;;0.43;91.13
43711;BME280;29309;42.682;23.372;2023-01-29T06:48:01;95468.59;;;0.45;91.63
43711;BME280;29309;42.682;23.372;2023-01-29T06:50:27;95460.59;;;0.47;91.31
43711;BME280;29309;42.682;23.372;2023-01-29T06:52:52;95464.25;;;0.50;91.64
43711;BME280;29309;42.682;23.372;2023-01-29T06:55:18;95470.63;;;0.53;91.56
43711;BME280;29309;42.682;23.372;2023-01-29T06:57:43;95469.16;;;0.52;91.43
43711;BME280;29309;42.682;23.372;2023-01-29T07:00:09;95480.28;;;0.54;91.44
43711;BME280;29309;42.682;23.372;2023-01-29T07:02:35;95476.97;;;0.55;91.65
43711;BME280;29309;42.682;23.372;2023-01-29T07:05:00;95476.63;;;0.59;91.66
43711;BME280;29309;42.682;23.372;2023-01-29T07:07:25;95485.00;;;0.61;91.61
43711;BME280;29309;42.682;23.372;2023-01-29T07:09:51;95475.72;;;0.64;91.39
43711;BME280;29309;42.682;23.372;2023-01-29T07:12:16;95471.16;;;0.66;91.11
43711;BME280;29309;42.682;23.372;2023-01-29T07:14:42;95482.66;;;0.65;91.16
43711;BME280;29309;42.682;23.372;2023-01-29T07:17:07;95480.63;;;0.65;91.16
43711;BME280;29309;42.682;23.372;2023-01-29T07:19:32;95493.22;;;0.68;90.48
43711;BME280;29309;42.682;23.372;2023-01-29T07:21:58;95487.03;;;0.68;90.84
43711;BME280;29309;42.682;23.372;2023-01-29T07:24:26;95492.84;;;0.72;90.87
43711;BME280;29309;42.682;23.372;2023-01-29T07:26:51;95483.72;;;0.77;90.55
43711;BME280;29309;42.682;23.372;2023-01-29T07:29:17;95492.84;;;0.79;89.97
43711;BME280;29309;42.682;23.372;2023-01-29T07:31:43;95491.03;;;0.82;90.38
43711;BME280;29309;42.682;23.372;2023-01-29T07:34:08;95493.94;;;0.84;89.93
43711;BME280;29309;42.682;23.372;2023-01-29T07:36:34;95492.13;;;0.86;89.82
43711;BME280;29309;42.682;23.372;2023-01-29T07:39:01;95499.41;;;0.91;89.01
43711;BME280;29309;42.682;23.372;2023-01-29T07:41:26;95494.50;;;0.90;88.82
43711;BME280;29309;42.682;23.372;2023-01-29T07:43:52;95496.66;;;0.91;89.06
43711;BME280;29309;42.682;23.372;2023-01-29T07:46:17;95497.22;;;0.90;88.84
43711;BME280;29309;42.682;23.372;2023-01-29T07:48:43;95502.13;;;0.91;89.05
43711;BME280;29309;42.682;23.372;2023-01-29T07:51:08;95501.59;;;0.93;89.38
43711;BME280;29309;42.682;23.372;2023-01-29T07:53:34;95502.69;;;0.90;88.91
43711;BME280;29309;42.682;23.372;2023-01-29T07:56:01;95512.69;;;0.87;88.76
43711;BME280;29309;42.682;23.372;2023-01-29T07:58:26;95499.97;;;0.82;89.38
43711;BME280;29309;42.682;23.372;2023-01-29T08:00:52;95508.69;;;0.81;89.27
43711;BME280;29309;42.682;23.372;2023-01-29T08:03:18;95512.88;;;0.82;89.71
43711;BME280;29309;42.682;23.372;2023-01-29T08:05:44;95511.78;;;0.85;89.74
43711;BME280;29309;42.682;23.372;2023-01-29T08:08:10;95514.69;;;0.87;89.34
43711;BME280;29309;42.682;23.372;2023-01-29T08:10:37;95516.72;;;0.86;89.37
43711;BME280;29309;42.682;23.372;2023-01-29T08:13:03;95512.31;;;0.83;89.07
43711;BME280;29309;42.682;23.372;2023-01-29T08:15:29;95519.63;;;0.81;88.82
43711;BME280;29309;42.682;23.372;2023-01-29T08:17:55;95514.34;;;0.83;89.11
43711;BME280;29309;42.682;23.372;2023-01-29T08:20:21;95522.72;;;0.85;89.00
43711;BME280;29309;42.682;23.372;2023-01-29T08:22:47;95518.72;;;0.86;89.11
43711;BME280;29309;42.682;23.372;2023-01-29T08:25:13;95519.09;;;0.90;88.99
43711;BME280;29309;42.682;23.372;2023-01-29T08:27:39;95530.41;;;0.94;89.03
43711;BME280;29309;42.682;23.372;2023-01-29T08:30:05;95525.63;;;0.94;88.54
43711;BME280;29309;42.682;23.372;2023-01-29T08:32:31;95526.72;;;0.99;88.44
43711;BME280;29309;42.682;23.372;2023-01-29T08:34:56;95526.72;;;0.99;87.14
43711;BME280;29309;42.682;23.372;2023-01-29T08:37:22;95534.94;;;0.99;87.15
43711;BME280;29309;42.682;23.372;2023-01-29T08:39:47;95534.75;;;0.97;86.66
43711;BME280;29309;42.682;23.372;2023-01-29T08:42:13;95532.56;;;0.95;86.32
43711;BME280;29309;42.682;23.372;2023-01-29T08:44:38;95530.03;;;0.90;86.05
43711;BME280;29309;42.682;23.372;2023-01-29T08:47:03;95537.66;;;0.91;86.34
43711;BME280;29309;42.682;23.372;2023-01-29T08:49:29;95542.03;;;0.94;86.58
43711;BME280;29309;42.682;23.372;2023-01-29T08:51:54;95541.13;;;0.92;85.77
43711;BME280;29309;42.682;23.372;2023-01-29T08:54:22;95546.97;;;0.88;85.94
43711;BME280;29309;42.682;23.372;2023-01-29T08:56:47;95553.88;;;0.89;85.70
43711;BME280;29309;42.682;23.372;2023-01-29T08:59:13;95553.31;;;0.91;86.17
43711;BME280;29309;42.682;23.372;2023-01-29T09:01:38;95554.78;;;0.92;86.18
43711;BME280;29309;42.682;23.372;2023-01-29T09:04:04;95557.91;;;0.96;86.08
43711;BME280;29309;42.682;23.372;2023-01-29T09:06:29;95562.09;;;0.97;85.92
43711;BME280;29309;42.682;23.372;2023-01-29T09:08:55;95559.72;;;1.01;86.17
43711;BME280;29309;42.682;23.372;2023-01-29T09:11:20;95561.16;;;1.02;86.10
43711;BME280;29309;42.682;23.372;2023-01-29T09:13:46;95551.88;;;1.05;85.29
43711;BME280;29309;42.682;23.372;2023-01-29T09:16:11;95548.44;;;1.05;85.31
43711;BME280;29309;42.682;23.372;2023-01-29T09:18:37;95554.59;;;1.05;85.02
43711;BME280;29309;42.682;23.372;2023-01-29T09:21:02;95552.59;;;1.06;84.89
43711;BME280;29309;42.682;23.372;2023-01-29T09:23:29;95557.53;;;1.07;84.66
43711;BME280;29309;42.682;23.372;2023-01-29T09:25:55;95554.97;;;1.09;84.63
43711;BME280;29309;42.682;23.372;2023-01-29T09:28:20;95549.69;;;1.11;84.41
43711;BME280;29309;42.682;23.372;2023-01-29T09:30:46;95554.44;;;1.11;84.15
43711;BME280;29309;42.682;23.372;2023-01-29T09:33:11;95550.59;;;1.06;84.19
43711;BME280;29309;42.682;23.372;2023-01-29T09:35:39;95549.34;;;1.07;84.11
43711;BME280;29309;42.682;23.372;2023-01-29T09:38:05;95543.88;;;1.07;84.23
43711;BME280;29309;42.682;23.372;2023-01-29T09:40:46;95543.31;;;1.09;83.93
43711;BME280;29309;42.682;23.372;2023-01-29T09:43:21;95540.94;;;1.05;84.01
43711;BME280;29309;42.682;23.372;2023-01-29T09:46:00;95541.88;;;1.00;83.55
43711;BME280;29309;42.682;23.372;2023-01-29T09:48:31;95541.66;;;0.98;83.86
43711;BME280;29309;42.682;23.372;2023-01-29T09:50:59;95540.41;;;0.99;83.80
43711;BME280;29309;42.682;23.372;2023-01-29T09:53:44;95540.59;;;1.01;84.15
43711;BME280;29309;42.682;23.372;2023-01-29T09:56:19;95532.41;;;1.01;84.38
43711;BME280;29309;42.682;23.372;2023-01-29T09:58:46;95537.50;;;1.05;84.44
43711;BME280;29309;42.682;23.372;2023-01-29T10:25:54;95521.25;;;1.14;85.53
43711;BME280;29309;42.682;23.372;2023-01-29T10:28:44;95511.44;;;1.19;84.90
43711;BME280;29309;42.682;23.372;2023-01-29T10:31:25;95516.53;;;1.22;84.40
43711;BME280;29309;42.682;23.372;2023-01-29T10:33:55;95505.75;;;1.24;83.94
43711;BME280;29309;42.682;23.372;2023-01-29T10:39:18;95499.38;;;1.22;83.75
43711;BME280;29309;42.682;23.372;2023-01-29T10:41:47;95500.84;;;1.23;83.37
43711;BME280;29309;42.682;23.372;2023-01-29T11:00:39;95484.75;;;1.34;83.20
43711;BME280;29309;42.682;23.372;2023-01-29T11:03:26;95489.16;;;1.37;83.25
43711;BME280;29309;42.682;23.372;2023-01-29T11:06:18;95489.31;;;1.39;82.95
43711;BME280;29309;42.682;23.372;2023-01-29T11:11:26;95496.25;;;1.40;82.91
43711;BME280;29309;42.682;23.372;2023-01-29T11:14:01;95483.47;;;1.43;83.13
43711;BME280;29309;42.682;23.372;2023-01-29T11:16:41;95486.97;;;1.36;83.09
43711;BME280;29309;42.682;23.372;2023-01-29T11:19:07;95483.31;;;1.33;83.06
43711;BME280;29309;42.682;23.372;2023-01-29T11:21:49;95482.38;;;1.38;82.98
43711;BME280;29309;42.682;23.372;2023-01-29T11:24:16;95477.84;;;1.33;83.05
43711;BME280;29309;42.682;23.372;2023-01-29T11:26:43;95466.91;;;1.33;82.78
43711;BME280;29309;42.682;23.372;2023-01-29T11:29:42;95473.66;;;1.32;82.72
43711;BME280;29309;42.682;23.372;2023-01-29T11:32:27;95470.03;;;1.30;82.68
43711;BME280;29309;42.682;23.372;2023-01-29T11:37:43;95464.56;;;1.30;83.27
43711;BME280;29309;42.682;23.372;2023-01-29T11:42:45;95455.97;;;1.41;83.08
43711;BME280;29309;42.682;23.372;2023-01-29T11:45:25;95445.03;;;1.41;82.54
43711;BME280;29309;42.682;23.372;2023-01-29T11:47:54;95439.34;;;1.46;82.57
43711;BME280;29309;42.682;23.372;2023-01-29T11:50:25;95441.31;;;1.54;82.48
43711;BME280;29309;42.682;23.372;2023-01-29T11:52:51;95444.22;;;1.56;82.53
43711;BME280;29309;42.682;23.372;2023-01-29T11:55:18;95437.28;;;1.62;82.03
43711;BME280;29309;42.682;23.372;2023-01-29T11:57:55;95438.00;;;1.63;82.33
43711;BME280;29309;42.682;23.372;2023-01-29T12:00:28;95442.72;;;1.70;82.14
43711;BME280;29309;42.682;23.372;2023-01-29T12:05:24;95443.81;;;1.67;80.89
43711;BME280;29309;42.682;23.372;2023-01-29T12:07:53;95436.72;;;1.64;80.93
43711;BME280;29309;42.682;23.372;2023-01-29T12:10:39;95433.97;;;1.64;81.27
43711;BME280;29309;42.682;23.372;2023-01-29T12:15:30;95434.34;;;1.68;80.99
43711;BME280;29309;42.682;23.372;2023-01-29T12:20:57;95435.53;;;1.82;81.65
43711;BME280;29309;42.682;23.372;2023-01-29T12:34:29;95435.47;;;1.57;80.57
43711;BME280;29309;42.682;23.372;2023-01-29T12:37:15;95433.28;;;1.56;80.52
43711;BME280;29309;42.682;23.372;2023-01-29T12:39:42;95432.75;;;1.49;80.31
43711;BME280;29309;42.682;23.372;2023-01-29T12:42:15;95436.22;;;1.50;80.66
43711;BME280;29309;42.682;23.372;2023-01-29T12:47:43;95443.09;;;1.66;81.11
43711;BME280;29309;42.682;23.372;2023-01-29T12:50:24;95440.91;;;1.65;80.84
43711;BME280;29309;42.682;23.372;2023-01-29T12:55:50;95441.41;;;1.78;80.64
43711;BME280;29309;42.682;23.372;2023-01-29T12:58:32;95442.47;;;1.83;80.53
43711;BME280;29309;42.682;23.372;2023-01-29T13:01:13;95437.34;;;1.87;80.59
43711;BME280;29309;42.682;23.372;2023-01-29T13:03:50;95437.72;;;1.91;80.20
43711;BME280;29309;42.682;23.372;2023-01-29T13:06:31;95437.72;;;1.91;79.68
43711;BME280;29309;42.682;23.372;2023-01-29T13:09:02;95432.63;;;1.87;79.66
43711;BME280;29309;42.682;23.372;2023-01-29T13:11:49;95435.72;;;1.84;79.25
43711;BME280;29309;42.682;23.372;2023-01-29T13:14:53;95435.53;;;1.82;79.33
43711;BME280;29309;42.682;23.372;2023-01-29T13:17:32;95428.09;;;1.75;79.29
43711;BME280;29309;42.682;23.372;2023-01-29T13:20:20;95439.41;;;1.79;79.46
43711;BME280;29309;42.682;23.372;2023-01-29T13:22:47;95430.66;;;1.73;79.24
43711;BME280;29309;42.682;23.372;2023-01-29T13:25:16;95436.72;;;1.64;78.76
43711;BME280;29309;42.682;23.372;2023-01-29T13:27:42;95432.94;;;1.59;78.92
43711;BME280;29309;42.682;23.372;2023-01-29T13:30:24;95428.88;;;1.60;78.91
43711;BME280;29309;42.682;23.372;2023-01-29T13:32:51;95436.38;;;1.60;79.37
43711;BME280;29309;42.682;23.372;2023-01-29T13:35:20;95446.75;;;1.61;79.21
43711;BME280;29309;42.682;23.372;2023-01-29T13:37:51;95442.78;;;1.55;79.36
43711;BME280;29309;42.682;23.372;2023-01-29T13:40:27;95448.25;;;1.55;79.89
43711;BME280;29309;42.682;23.372;2023-01-29T13:42:54;95449.66;;;1.63;80.10
43711;BME280;29309;42.682;23.372;2023-01-29T13:45:23;95456.56;;;1.72;79.87
43711;BME280;29309;42.682;23.372;2023-01-29T13:47:51;95462.22;;;1.74;79.67
43711;BME280;29309;42.682;23.372;2023-01-29T13:50:29;95459.53;;;1.66;79.13
43711;BME280;29309;42.682;23.372;2023-01-29T13:52:58;95455.50;;;1.60;78.70
43711;BME280;29309;42.682;23.372;2023-01-29T13:55:38;95460.31;;;1.52;78.22
43711;BME280;29309;42.682;23.372;2023-01-29T13:58:05;95460.31;;;1.44;78.49
43711;BME280;29309;42.682;23.372;2023-01-29T14:10:40;95465.25;;;1.30;79.71
43711;BME280;29309;42.682;23.372;2023-01-29T14:15:45;95467.28;;;1.30;79.18
43711;BME280;29309;42.682;23.372;2023-01-29T14:18:32;95468.00;;;1.30;79.51
43711;BME280;29309;42.682;23.372;2023-01-29T14:21:02;95472.41;;;1.26;79.50
43711;BME280;29309;42.682;23.372;2023-01-29T14:31:38;95484.41;;;1.30;79.63
43711;BME280;29309;42.682;23.372;2023-01-29T14:34:11;95482.97;;;1.29;79.83
43711;BME280;29309;42.682;23.372;2023-01-29T14:36:39;95493.53;;;1.33;79.55
43711;BME280;29309;42.682;23.372;2023-01-29T14:39:21;95494.63;;;1.37;79.91
43711;BME280;29309;42.682;23.372;2023-01-29T14:41:49;95494.78;;;1.39;80.11
43711;BME280;29309;42.682;23.372;2023-01-29T14:52:47;95492.28;;;1.26;80.15
43711;BME280;29309;42.682;23.372;2023-01-29T14:55:28;95483.72;;;1.22;80.96
43711;BME280;29309;42.682;23.372;2023-01-29T14:57:55;95491.00;;;1.20;81.05
43711;BME280;29309;42.682;23.372;2023-01-29T15:00:27;95489.91;;;1.23;81.26
43711;BME280;29309;42.682;23.372;2023-01-29T15:02:54;95497.56;;;1.24;81.69
43711;BME280;29309;42.682;23.372;2023-01-29T15:05:28;95499.56;;;1.24;81.78
43711;BME280;29309;42.682;23.372;2023-01-29T15:08:37;95490.47;;;1.14;81.74
43711;BME280;29309;42.682;23.372;2023-01-29T15:11:14;95494.28;;;1.03;81.27
43711;BME280;29309;42.682;23.372;2023-01-29T15:14:13;95490.09;;;0.94;82.09
43711;BME280;29309;42.682;23.372;2023-01-29T15:22:11;95501.03;;;0.87;82.82
43711;BME280;29309;42.682;23.372;2023-01-29T15:24:38;95499.59;;;0.86;83.24
43711;BME280;29309;42.682;23.372;2023-01-29T15:27:06;95499.41;;;0.84;83.03
43711;BME280;29309;42.682;23.372;2023-01-29T15:29:34;95507.44;;;0.82;83.53
43711;BME280;29309;42.682;23.372;2023-01-29T15:32:00;95510.69;;;0.80;83.58
43711;BME280;29309;42.682;23.372;2023-01-29T15:34:26;95508.88;;;0.75;83.92
43711;BME280;29309;42.682;23.372;2023-01-29T15:36:51;95511.25;;;0.71;83.82
43711;BME280;29309;42.682;23.372;2023-01-29T15:39:20;95512.16;;;0.74;84.11
43711;BME280;29309;42.682;23.372;2023-01-29T15:41:47;95515.44;;;0.72;84.04
43711;BME280;29309;42.682;23.372;2023-01-29T15:44:19;95512.88;;;0.74;84.01
43711;BME280;29309;42.682;23.372;2023-01-29T15:46:54;95511.97;;;0.72;84.00